Virden, Illinois
Current Conditions -  °F | °C
As of 1:15 PM on Sunday 21 Dec 2014 (Local Time) from KTAZ Reporting Station
Overcast Overcast  
Wind Chill: -2°   Ceiling: 2200
Heat Index:   Visibility: 7mi
Dew Point:   Wind: 9mph
Humidity: 87%   Direction: 150°SSE
Pressure: 30.11"   Gusts: NA
Location:  39.5°N, 89.77°W
Report Text: KTAZ 211915Z AUTO 15008KT 7SM OVC022 02/00 A3011 RMK AO2
Loading
Personal Weather Stations






























Interactive Weather Map New forecast layout! Learn more

10-Day Weather Forecast

Advertisements
Track Severe Weather on mobile